createdAt,value
2018-09-01T00:00:18.357Z,0
2018-09-01T00:01:18.933Z,0
2018-09-01T00:02:19.488Z,0
2018-09-01T00:03:20.030Z,0
2018-09-01T00:04:20.581Z,0
2018-09-01T00:05:21.128Z,0
2018-09-01T00:06:21.676Z,0
2018-09-01T00:07:22.271Z,0
2018-09-01T00:08:22.780Z,0
2018-09-01T00:09:23.332Z,0
2018-09-01T00:10:23.884Z,0
2018-09-01T00:11:24.436Z,0
2018-09-01T00:12:24.987Z,0
2018-09-01T00:13:25.539Z,0
2018-09-01T00:14:26.093Z,0
2018-09-01T00:15:26.633Z,0
2018-09-01T00:16:27.191Z,0
2018-09-01T00:17:27.740Z,0
2018-09-01T00:18:28.287Z,0
2018-09-01T00:19:28.838Z,0
2018-09-01T00:20:29.389Z,0
2018-09-01T00:21:29.939Z,0
2018-09-01T00:22:30.487Z,0
2018-09-01T00:23:31.038Z,0
2018-09-01T00:24:31.599Z,0
2018-09-01T00:25:32.139Z,0
2018-09-01T00:26:32.690Z,0
2018-09-01T00:27:33.245Z,0
2018-09-01T00:28:33.795Z,0
2018-09-01T00:29:34.348Z,0
2018-09-01T00:30:34.921Z,0
2018-09-01T00:31:35.469Z,0
2018-09-01T00:32:35.998Z,0
2018-09-01T00:33:36.543Z,0
2018-09-01T00:34:37.094Z,0
2018-09-01T00:35:37.647Z,0
2018-09-01T00:36:38.201Z,0
2018-09-01T00:37:38.755Z,0
2018-09-01T00:38:39.305Z,0
2018-09-01T00:39:39.855Z,0
2018-09-01T00:40:40.409Z,0
2018-09-01T00:41:40.977Z,0
2018-09-01T00:42:41.509Z,0
2018-09-01T00:43:42.062Z,0
2018-09-01T00:44:42.604Z,0
2018-09-01T00:45:43.155Z,0
2018-09-01T00:46:43.707Z,0
2018-09-01T00:47:44.257Z,0
2018-09-01T00:48:44.795Z,0
2018-09-01T00:49:45.359Z,0
2018-09-01T00:50:45.889Z,0
2018-09-01T00:51:46.441Z,0
2018-09-01T00:52:46.989Z,0
2018-09-01T00:53:47.541Z,0
2018-09-01T00:54:48.096Z,0
2018-09-01T00:55:48.652Z,0
2018-09-01T00:56:49.202Z,0
2018-09-01T00:57:49.757Z,0
2018-09-01T00:58:50.300Z,0
2018-09-01T00:59:50.853Z,0
2018-09-01T01:00:51.413Z,0
2018-09-01T01:01:51.948Z,0
2018-09-01T01:02:52.500Z,0
2018-09-01T01:03:53.054Z,0
2018-09-01T01:04:53.599Z,0
2018-09-01T01:05:54.145Z,0
2018-09-01T01:06:54.699Z,0
2018-09-01T01:07:55.244Z,0
2018-09-01T01:08:55.802Z,0
2018-09-01T01:09:56.345Z,0
2018-09-01T01:10:56.895Z,0
2018-09-01T01:11:57.443Z,0
2018-09-01T01:12:57.989Z,0
2018-09-01T01:13:58.540Z,0
2018-09-01T01:14:59.083Z,0
2018-09-01T01:15:59.629Z,0
2018-09-01T01:17:00.175Z,0
2018-09-01T01:18:00.719Z,0
2018-09-01T01:19:01.271Z,0
2018-09-01T01:20:01.813Z,0
2018-09-01T01:21:02.365Z,0
2018-09-01T01:22:02.922Z,0
2018-09-01T01:23:03.466Z,0
2018-09-01T01:24:04.009Z,0
2018-09-01T01:25:04.572Z,0
2018-09-01T01:26:05.122Z,0
2018-09-01T01:27:05.659Z,0
2018-09-01T01:28:06.209Z,0
2018-09-01T01:29:06.761Z,0
2018-09-01T01:30:07.321Z,0
2018-09-01T01:31:07.857Z,0
2018-09-01T01:32:08.411Z,0
2018-09-01T01:33:08.961Z,0
2018-09-01T01:34:09.520Z,0
2018-09-01T01:35:10.064Z,0
2018-09-01T01:36:10.612Z,0
2018-09-01T01:37:11.164Z,0
2018-09-01T01:38:11.737Z,0
2018-09-01T01:39:12.270Z,0
2018-09-01T01:40:12.817Z,0
2018-09-01T01:41:13.368Z,0
2018-09-01T01:42:13.921Z,0
2018-09-01T01:43:14.471Z,0
2018-09-01T01:44:15.021Z,0
2018-09-01T01:45:15.572Z,0
2018-09-01T01:46:16.130Z,0
2018-09-01T01:47:16.671Z,0
2018-09-01T01:48:17.214Z,0
2018-09-01T01:49:17.766Z,0
2018-09-01T01:50:18.317Z,0
2018-09-01T01:51:18.867Z,0
2018-09-01T01:52:19.419Z,0
2018-09-01T01:53:19.972Z,0
2018-09-01T01:54:20.514Z,0
2018-09-01T01:55:21.061Z,0
2018-09-01T01:56:21.611Z,0
2018-09-01T01:57:22.154Z,0
2018-09-01T01:58:22.703Z,0
2018-09-01T01:59:23.257Z,0
2018-09-01T02:00:23.799Z,0
2018-09-01T02:01:24.352Z,0
2018-09-01T02:02:24.900Z,0
2018-09-01T02:03:25.446Z,0
2018-09-01T02:04:25.988Z,0
2018-09-01T02:05:26.541Z,0
2018-09-01T02:06:27.096Z,0
2018-09-01T02:07:27.645Z,0
2018-09-01T02:08:28.199Z,0
2018-09-01T02:09:28.749Z,0
2018-09-01T02:10:29.297Z,0
2018-09-01T02:11:29.844Z,0
2018-09-01T02:12:30.395Z,0
2018-09-01T02:13:30.941Z,0
2018-09-01T02:14:31.488Z,0
2018-09-01T02:15:32.030Z,0
2018-09-01T02:16:32.578Z,0
2018-09-01T02:17:33.127Z,0
2018-09-01T02:18:33.671Z,0
2018-09-01T02:19:34.224Z,0
2018-09-01T02:20:34.773Z,0
2018-09-01T02:21:35.326Z,0
2018-09-01T02:22:35.880Z,0
2018-09-01T02:23:36.426Z,0
2018-09-01T02:24:36.978Z,0
2018-09-01T02:25:37.534Z,0
2018-09-01T02:26:38.084Z,0
2018-09-01T02:27:38.639Z,0
2018-09-01T02:28:39.188Z,0
2018-09-01T02:29:39.739Z,0
2018-09-01T02:30:40.294Z,0
2018-09-01T02:31:40.856Z,0
2018-09-01T02:32:41.391Z,0
2018-09-01T02:33:41.943Z,0
2018-09-01T02:34:42.493Z,0
2018-09-01T02:35:43.035Z,0
2018-09-01T02:36:43.584Z,0
2018-09-01T02:37:44.132Z,0
2018-09-01T02:38:44.674Z,0
2018-09-01T02:39:45.223Z,0
2018-09-01T02:40:45.772Z,0
2018-09-01T02:41:46.323Z,0
2018-09-01T02:42:46.871Z,0
2018-09-01T02:43:47.425Z,0
2018-09-01T02:44:47.971Z,0
2018-09-01T02:45:48.519Z,0
2018-09-01T02:46:49.069Z,0
2018-09-01T02:47:49.609Z,0
2018-09-01T02:48:50.161Z,0
2018-09-01T02:49:50.708Z,0
2018-09-01T02:50:51.250Z,0
2018-09-01T02:51:51.800Z,0
2018-09-01T02:52:52.342Z,0
2018-09-01T02:53:52.891Z,0
2018-09-01T02:54:53.437Z,0
2018-09-01T02:55:53.984Z,0
2018-09-01T02:56:54.534Z,0
2018-09-01T02:57:55.083Z,0
2018-09-01T02:58:55.632Z,0
2018-09-01T02:59:56.214Z,0
2018-09-01T03:00:56.728Z,0
2018-09-01T03:01:57.281Z,0
2018-09-01T03:02:57.826Z,0
2018-09-01T03:03:58.371Z,0
2018-09-01T03:04:58.926Z,0
2018-09-01T03:05:59.479Z,0
2018-09-01T03:07:00.025Z,0
2018-09-01T03:08:00.570Z,0
2018-09-01T03:09:01.119Z,0
2018-09-01T03:10:01.687Z,0
2018-09-01T03:11:02.219Z,0
2018-09-01T03:12:02.771Z,0
2018-09-01T03:13:03.321Z,0
2018-09-01T03:14:03.873Z,0
2018-09-01T03:15:04.426Z,0
2018-09-01T03:16:04.974Z,0
2018-09-01T03:17:05.521Z,0
2018-09-01T03:18:06.064Z,0
2018-09-01T03:19:06.613Z,0
2018-09-01T03:20:07.157Z,0
2018-09-01T03:21:07.706Z,0
2018-09-01T03:22:08.248Z,0
2018-09-01T03:23:08.797Z,0
2018-09-01T03:24:09.339Z,0
2018-09-01T03:25:09.879Z,0
2018-09-01T03:26:10.424Z,0
2018-09-01T03:27:10.966Z,0
2018-09-01T03:28:11.515Z,0
2018-09-01T03:29:12.070Z,0
2018-09-01T03:30:12.618Z,0
2018-09-01T03:31:13.165Z,0
2018-09-01T03:32:13.708Z,0
2018-09-01T03:33:14.258Z,0
2018-09-01T03:34:14.813Z,0
2018-09-01T03:35:15.350Z,0
2018-09-01T03:36:15.902Z,0
2018-09-01T03:37:16.451Z,0
2018-09-01T03:38:17.003Z,0
2018-09-01T03:39:17.552Z,0
2018-09-01T03:40:18.104Z,0
2018-09-01T03:41:18.657Z,0
2018-09-01T03:42:19.202Z,0
2018-09-01T03:43:19.746Z,0
2018-09-01T03:44:20.293Z,0
2018-09-01T03:45:20.850Z,0
2018-09-01T03:46:21.398Z,0
2018-09-01T03:47:21.941Z,0
2018-09-01T03:48:22.498Z,0
2018-09-01T03:49:23.053Z,0
2018-09-01T03:50:23.596Z,0
2018-09-01T03:51:24.149Z,0
2018-09-01T03:52:24.697Z,0
2018-09-01T03:53:25.247Z,0
2018-09-01T03:54:25.788Z,0
2018-09-01T03:55:26.337Z,0
2018-09-01T03:56:26.886Z,0
2018-09-01T03:57:27.436Z,0
2018-09-01T03:58:27.989Z,0
2018-09-01T03:59:28.539Z,0
2018-09-01T04:00:29.087Z,0
2018-09-01T04:01:29.637Z,0
2018-09-01T04:02:30.191Z,0
2018-09-01T04:03:30.741Z,0
2018-09-01T04:04:31.286Z,0
2018-09-01T04:05:31.832Z,0
2018-09-01T04:06:32.381Z,0
2018-09-01T04:07:32.932Z,0
2018-09-01T04:08:33.483Z,0
2018-09-01T04:09:34.029Z,0
2018-09-01T04:10:34.581Z,0
2018-09-01T04:11:35.139Z,0
2018-09-01T04:12:35.680Z,0
2018-09-01T04:13:36.232Z,0
2018-09-01T04:14:36.780Z,0
2018-09-01T04:15:37.329Z,0
2018-09-01T04:16:37.878Z,0
2018-09-01T04:17:38.425Z,0
2018-09-01T04:18:38.980Z,0
2018-09-01T04:19:39.525Z,0
2018-09-01T04:20:40.066Z,0
2018-09-01T04:21:40.605Z,0
2018-09-01T04:22:41.168Z,0
2018-09-01T04:23:41.700Z,0
2018-09-01T04:24:42.254Z,0
2018-09-01T04:25:42.792Z,0
2018-09-01T04:26:43.337Z,0
2018-09-01T04:27:43.886Z,0
2018-09-01T04:28:44.444Z,0
2018-09-01T04:29:44.989Z,0
2018-09-01T04:30:45.540Z,0
2018-09-01T04:31:46.090Z,0
2018-09-01T04:32:46.638Z,0
2018-09-01T04:33:47.189Z,0
2018-09-01T04:34:47.734Z,0
2018-09-01T04:35:48.279Z,0
2018-09-01T04:36:48.837Z,0
2018-09-01T04:37:49.387Z,0
2018-09-01T04:38:49.927Z,0
2018-09-01T04:39:50.483Z,5
2018-09-01T04:40:51.032Z,5
2018-09-01T04:41:51.634Z,5
2018-09-01T04:42:52.187Z,5
2018-09-01T04:43:52.751Z,5
2018-09-01T04:44:53.294Z,5
2018-09-01T04:45:53.844Z,5
2018-09-01T04:46:54.406Z,10
2018-09-01T04:47:54.933Z,10
2018-09-01T04:48:55.483Z,10
2018-09-01T04:49:56.037Z,10
2018-09-01T04:50:56.581Z,15
2018-09-01T04:51:57.129Z,15
2018-09-01T04:52:57.681Z,15
2018-09-01T04:53:58.249Z,20
2018-09-01T04:54:58.788Z,20
2018-09-01T04:55:59.342Z,20
2018-09-01T04:56:59.891Z,25
2018-09-01T04:58:00.442Z,25
2018-09-01T04:59:00.987Z,25
2018-09-01T05:00:01.534Z,30
2018-09-01T05:01:02.166Z,30
2018-09-01T05:02:02.635Z,30
2018-09-01T05:03:03.178Z,35
2018-09-01T05:04:03.731Z,35
2018-09-01T05:05:04.288Z,40
2018-09-01T05:06:04.839Z,40
2018-09-01T05:07:05.394Z,45
2018-09-01T05:08:05.947Z,45
2018-09-01T05:09:06.498Z,45
2018-09-01T05:10:07.043Z,50
2018-09-01T05:11:07.593Z,50
2018-09-01T05:12:08.143Z,55
2018-09-01T05:13:08.698Z,55
2018-09-01T05:14:09.258Z,55
2018-09-01T05:15:09.806Z,55
2018-09-01T05:16:10.354Z,60
2018-09-01T05:17:10.909Z,60
2018-09-01T05:18:11.461Z,65
2018-09-01T05:19:12.017Z,65
2018-09-01T05:20:12.565Z,70
2018-09-01T05:21:13.119Z,70
2018-09-01T05:22:13.675Z,75
2018-09-01T05:23:14.228Z,80
2018-09-01T05:24:14.788Z,80
2018-09-01T05:25:15.335Z,85
2018-09-01T05:26:15.892Z,90
2018-09-01T05:27:16.445Z,90
2018-09-01T05:28:16.995Z,95
2018-09-01T05:29:17.549Z,95
2018-09-01T05:30:18.096Z,95
2018-09-01T05:31:18.653Z,100
2018-09-01T05:32:19.208Z,105
2018-09-01T05:33:19.766Z,120
2018-09-01T05:34:20.317Z,125
2018-09-01T05:35:20.884Z,130
2018-09-01T05:36:21.434Z,130
2018-09-01T05:37:21.990Z,135
2018-09-01T05:38:22.549Z,130
2018-09-01T05:39:23.106Z,125
2018-09-01T05:40:23.664Z,140
2018-09-01T05:41:24.222Z,150
2018-09-01T05:42:24.782Z,155
2018-09-01T05:43:25.340Z,155
2018-09-01T05:44:25.901Z,150
2018-09-01T05:45:26.456Z,150
2018-09-01T05:46:27.011Z,160
2018-09-01T05:47:27.570Z,170
2018-09-01T05:48:28.135Z,180
2018-09-01T05:49:28.688Z,180
2018-09-01T05:50:29.251Z,180
2018-09-01T05:51:29.815Z,185
2018-09-01T05:52:30.375Z,190
2018-09-01T05:53:30.935Z,190
2018-09-01T05:54:31.496Z,195
2018-09-01T05:55:32.060Z,200
2018-09-01T05:56:32.621Z,200
2018-09-01T05:57:33.180Z,205
2018-09-01T05:58:33.735Z,210
2018-09-01T05:59:34.299Z,215
2018-09-01T06:00:34.877Z,215
2018-09-01T06:01:35.416Z,220
2018-09-01T06:02:35.976Z,225
2018-09-01T06:03:36.536Z,230
2018-09-01T06:04:37.097Z,235
2018-09-01T06:05:37.662Z,235
2018-09-01T06:06:38.222Z,240
2018-09-01T06:07:38.786Z,240
2018-09-01T06:08:39.352Z,225
2018-09-01T06:09:39.911Z,195
2018-09-01T06:10:40.476Z,200
2018-09-01T06:11:41.034Z,220
2018-09-01T06:12:41.601Z,220
2018-09-01T06:13:42.166Z,215
2018-09-01T06:14:42.723Z,210
2018-09-01T06:15:43.290Z,205
2018-09-01T06:16:43.850Z,205
2018-09-01T06:17:44.511Z,215
2018-09-01T06:18:44.971Z,225
2018-09-01T06:19:45.535Z,225
2018-09-01T06:20:46.096Z,220
2018-09-01T06:21:46.662Z,265
2018-09-01T06:22:47.226Z,305
2018-09-01T06:23:47.833Z,315
2018-09-01T06:24:48.377Z,325
2018-09-01T06:25:48.915Z,330
2018-09-01T06:26:49.475Z,330
2018-09-01T06:27:50.040Z,335
2018-09-01T06:28:50.604Z,340
2018-09-01T06:29:51.171Z,345
2018-09-01T06:30:51.735Z,350
2018-09-01T06:31:52.300Z,355
2018-09-01T06:32:52.934Z,360
2018-09-01T06:33:53.422Z,360
2018-09-01T06:34:53.989Z,365
2018-09-01T06:35:54.557Z,365
2018-09-01T06:36:55.124Z,365
2018-09-01T06:37:55.684Z,375
2018-09-01T06:38:56.255Z,380
2018-09-01T06:39:56.823Z,385
2018-09-01T06:40:57.391Z,390
2018-09-01T06:41:57.950Z,400
2018-09-01T06:42:58.567Z,400
2018-09-01T06:43:59.085Z,410
2018-09-01T06:44:59.644Z,415
2018-09-01T06:46:00.214Z,420
2018-09-01T06:47:00.775Z,425
2018-09-01T06:48:01.345Z,430
2018-09-01T06:49:01.915Z,440
2018-09-01T06:50:02.481Z,440
2018-09-01T06:51:03.058Z,450
2018-09-01T06:52:03.625Z,455
2018-09-01T06:53:04.196Z,460
2018-09-01T06:54:04.752Z,470
2018-09-01T06:55:05.316Z,475
2018-09-01T06:56:05.881Z,475
2018-09-01T06:57:06.442Z,485
2018-09-01T06:58:07.017Z,495
2018-09-01T06:59:07.587Z,500
2018-09-01T07:00:08.147Z,505
2018-09-01T07:01:08.725Z,510
2018-09-01T07:02:09.290Z,525
2018-09-01T07:03:09.859Z,525
2018-09-01T07:04:10.427Z,535
2018-09-01T07:05:10.996Z,540
2018-09-01T07:06:11.564Z,540
2018-09-01T07:07:12.140Z,550
2018-09-01T07:08:12.707Z,560
2018-09-01T07:09:13.278Z,565
2018-09-01T07:10:13.845Z,570
2018-09-01T07:11:14.408Z,575
2018-09-01T07:12:14.971Z,595
2018-09-01T07:13:15.542Z,600
2018-09-01T07:14:16.114Z,600
2018-09-01T07:15:16.683Z,605
2018-09-01T07:16:17.263Z,610
2018-09-01T07:17:17.828Z,620
2018-09-01T07:18:18.391Z,630
2018-09-01T07:19:18.961Z,630
2018-09-01T07:20:19.535Z,635
2018-09-01T07:21:20.098Z,640
2018-09-01T07:22:20.671Z,650
2018-09-01T07:23:21.249Z,655
2018-09-01T07:24:21.822Z,670
2018-09-01T07:25:22.387Z,670
2018-09-01T07:26:22.960Z,675
2018-09-01T07:27:23.556Z,685
2018-09-01T07:28:24.095Z,695
2018-09-01T07:29:24.657Z,705
2018-09-01T07:30:25.314Z,710
2018-09-01T07:31:26.123Z,715
2018-09-01T07:32:26.354Z,730
2018-09-01T07:33:26.928Z,730
2018-09-01T07:34:27.501Z,735
2018-09-01T07:35:28.072Z,745
2018-09-01T07:36:28.645Z,750
2018-09-01T07:37:29.218Z,765
2018-09-01T07:38:29.786Z,770
2018-09-01T07:39:30.350Z,780
2018-09-01T07:40:30.923Z,790
2018-09-01T07:41:31.493Z,800
2018-09-01T07:42:32.072Z,805
2018-09-01T07:43:32.640Z,815
2018-09-01T07:44:33.211Z,825
2018-09-01T07:45:33.773Z,830
2018-09-01T07:46:34.345Z,840
2018-09-01T07:47:34.910Z,855
2018-09-01T07:48:35.483Z,860
2018-09-01T07:49:36.059Z,870
2018-09-01T07:50:36.637Z,885
2018-09-01T07:51:37.205Z,890
2018-09-01T07:52:37.771Z,895
2018-09-01T07:53:38.344Z,905
2018-09-01T07:54:38.989Z,905
2018-09-01T07:55:39.485Z,920
2018-09-01T07:56:40.057Z,925
2018-09-01T07:57:40.627Z,935
2018-09-01T07:58:41.198Z,945
2018-09-01T07:59:41.775Z,950
2018-09-01T08:00:42.343Z,965
2018-09-01T08:01:42.915Z,970
2018-09-01T08:02:43.488Z,990
2018-09-01T08:03:44.059Z,995
2018-09-01T08:04:44.635Z,1010
2018-09-01T08:05:45.227Z,1015
2018-09-01T08:06:45.782Z,1015
2018-09-01T08:07:46.355Z,1020
2018-09-01T08:08:46.932Z,1025
2018-09-01T08:09:47.500Z,1035
2018-09-01T08:10:48.080Z,1035
2018-09-01T08:11:48.656Z,1055
2018-09-01T08:12:49.232Z,1055
2018-09-01T08:13:49.856Z,1065
2018-09-01T08:14:50.386Z,1090
2018-09-01T08:15:50.940Z,1085
2018-09-01T08:16:51.513Z,1105
2018-09-01T08:17:52.090Z,1105
2018-09-01T08:18:52.660Z,1110
2018-09-01T08:19:53.224Z,1120
2018-09-01T08:20:53.804Z,1130
2018-09-01T08:21:54.364Z,1140
2018-09-01T08:22:54.936Z,1145
2018-09-01T08:23:55.517Z,1165
2018-09-01T08:24:56.086Z,1175
2018-09-01T08:25:56.701Z,1185
2018-09-01T08:26:57.235Z,1195
2018-09-01T08:27:57.807Z,1215
2018-09-01T08:28:58.377Z,1220
2018-09-01T08:29:58.952Z,1225
2018-09-01T08:30:59.524Z,1230
2018-09-01T08:32:00.099Z,1235
2018-09-01T08:33:00.671Z,1250
2018-09-01T08:34:01.327Z,1245
2018-09-01T08:35:01.815Z,1250
2018-09-01T08:36:02.388Z,1260
2018-09-01T08:37:02.960Z,1270
2018-09-01T08:38:03.530Z,1280
2018-09-01T08:39:04.101Z,1295
2018-09-01T08:40:04.732Z,1310
2018-09-01T08:41:05.258Z,1300
2018-09-01T08:42:05.834Z,1315
2018-09-01T08:43:06.407Z,1325
2018-09-01T08:44:06.978Z,1320
2018-09-01T08:45:07.545Z,1340
2018-09-01T08:46:08.137Z,1360
2018-09-01T08:47:08.721Z,1355
2018-09-01T08:48:09.283Z,1370
2018-09-01T08:49:09.851Z,1375
2018-09-01T08:50:10.418Z,1410
2018-09-01T08:51:10.990Z,1415
2018-09-01T08:52:11.564Z,1420
2018-09-01T08:53:12.130Z,1405
2018-09-01T08:54:12.698Z,1405
2018-09-01T08:55:13.260Z,1405
2018-09-01T08:56:13.830Z,1415
2018-09-01T08:57:14.394Z,1440
2018-09-01T08:58:14.977Z,1445
2018-09-01T08:59:15.549Z,1475
2018-09-01T09:00:16.119Z,1485
2018-09-01T09:01:16.691Z,1515
2018-09-01T09:02:17.265Z,1515
2018-09-01T09:03:17.836Z,1535
2018-09-01T09:04:18.411Z,1545
2018-09-01T09:05:18.974Z,1550
2018-09-01T09:06:19.547Z,1570
2018-09-01T09:07:20.120Z,1590
2018-09-01T09:08:20.692Z,1620
2018-09-01T09:09:21.265Z,1635
2018-09-01T09:10:21.840Z,1645
2018-09-01T09:11:22.416Z,1685
2018-09-01T09:12:22.988Z,1685
2018-09-01T09:13:23.563Z,1675
2018-09-01T09:14:24.137Z,1715
2018-09-01T09:15:24.720Z,1720
2018-09-01T09:16:25.292Z,1735
2018-09-01T09:17:25.886Z,1700
2018-09-01T09:18:26.488Z,1735
2018-09-01T09:19:27.012Z,1705
2018-09-01T09:20:27.585Z,1710
2018-09-01T09:21:28.486Z,1700
2018-09-01T09:22:28.731Z,1760
2018-09-01T09:23:29.296Z,1805
2018-09-01T09:24:29.869Z,1860
2018-09-01T09:25:30.442Z,635
2018-09-01T09:26:31.009Z,580
2018-09-01T09:27:31.584Z,515
2018-09-01T09:28:32.145Z,525
2018-09-01T09:29:32.716Z,875
2018-09-01T09:30:33.289Z,1805
2018-09-01T09:31:33.850Z,1805
2018-09-01T09:32:34.425Z,745
2018-09-01T09:33:35.001Z,1845
2018-09-01T09:34:35.586Z,590
2018-09-01T09:35:36.135Z,1850
2018-09-01T09:36:36.706Z,1855
2018-09-01T09:37:37.277Z,1895
2018-09-01T09:38:37.851Z,1770
2018-09-01T09:39:38.421Z,1915
2018-09-01T09:40:38.997Z,1970
2018-09-01T09:41:39.563Z,1140
2018-09-01T09:42:40.136Z,1525
2018-09-01T09:43:40.707Z,1900
2018-09-01T09:44:41.276Z,1940
2018-09-01T09:45:41.845Z,1970
2018-09-01T09:46:42.416Z,1955
2018-09-01T09:47:42.989Z,1910
2018-09-01T09:48:43.558Z,665
2018-09-01T09:49:44.128Z,510
2018-09-01T09:50:44.703Z,950
2018-09-01T09:51:45.269Z,530
2018-09-01T09:52:45.837Z,660
2018-09-01T09:53:46.406Z,2105
2018-09-01T09:54:46.979Z,2060
2018-09-01T09:55:47.549Z,2065
2018-09-01T09:56:48.121Z,2060
2018-09-01T09:57:48.688Z,2060
2018-09-01T09:58:49.257Z,2060
2018-09-01T09:59:49.827Z,2040
2018-09-01T10:00:50.395Z,2010
2018-09-01T10:01:50.959Z,2020
2018-09-01T10:02:51.527Z,2050
2018-09-01T10:03:52.104Z,2070
2018-09-01T10:04:52.672Z,2085
2018-09-01T10:05:53.243Z,2115
2018-09-01T10:06:53.819Z,2120
2018-09-01T10:07:54.387Z,2135
2018-09-01T10:08:54.958Z,2135
2018-09-01T10:09:55.533Z,2130
2018-09-01T10:10:56.168Z,2160
2018-09-01T10:11:56.684Z,2150
2018-09-01T10:12:57.257Z,2165
2018-09-01T10:13:57.832Z,2170
2018-09-01T10:14:58.402Z,2185
2018-09-01T10:15:59.064Z,2190
2018-09-01T10:16:59.537Z,2205
2018-09-01T10:18:00.104Z,2220
2018-09-01T10:19:00.676Z,2205
2018-09-01T10:20:01.319Z,2180
2018-09-01T10:21:01.815Z,2195
2018-09-01T10:22:02.393Z,2225
2018-09-01T10:23:02.966Z,2250
2018-09-01T10:24:03.537Z,2305
2018-09-01T10:25:04.111Z,2360
2018-09-01T10:26:04.680Z,2395
2018-09-01T10:27:05.328Z,2400
2018-09-01T10:28:05.818Z,2380
2018-09-01T10:29:06.400Z,2360
2018-09-01T10:30:06.958Z,2360
2018-09-01T10:31:07.532Z,1035
2018-09-01T10:32:08.103Z,640
2018-09-01T10:33:08.690Z,555
2018-09-01T10:34:09.244Z,500
2018-09-01T10:35:09.816Z,1495
2018-09-01T10:36:10.383Z,2425
2018-09-01T10:37:10.954Z,2435
2018-09-01T10:38:11.526Z,2450
2018-09-01T10:39:12.096Z,2470
2018-09-01T10:40:12.667Z,2460
2018-09-01T10:41:13.253Z,2410
2018-09-01T10:42:13.800Z,2440
2018-09-01T10:43:14.374Z,2450
2018-09-01T10:44:14.988Z,2245
2018-09-01T10:45:15.516Z,610
2018-09-01T10:46:16.085Z,585
2018-09-01T10:47:16.657Z,590
2018-09-01T10:48:17.228Z,1180
2018-09-01T10:49:17.806Z,2200
2018-09-01T10:50:18.368Z,640
2018-09-01T10:51:18.943Z,2445
2018-09-01T10:52:19.512Z,2535
2018-09-01T10:53:20.074Z,2535
2018-09-01T10:54:20.636Z,2555
2018-09-01T10:55:21.210Z,2570
2018-09-01T10:56:21.776Z,480
2018-09-01T10:57:22.351Z,465
2018-09-01T10:58:22.911Z,465
2018-09-01T10:59:23.521Z,450
2018-09-01T11:00:24.034Z,450
2018-09-01T11:01:24.605Z,470
2018-09-01T11:02:25.171Z,540
2018-09-01T11:03:25.742Z,1840
2018-09-01T11:04:26.303Z,2670
2018-09-01T11:05:26.894Z,2675
2018-09-01T11:06:27.440Z,2690
2018-09-01T11:07:28.006Z,2705
2018-09-01T11:08:28.574Z,2710
2018-09-01T11:09:29.135Z,2725
2018-09-01T11:10:29.709Z,2770
2018-09-01T11:11:30.277Z,2790
2018-09-01T11:12:30.852Z,2815
2018-09-01T11:13:31.423Z,2845
2018-09-01T11:14:31.993Z,2890
2018-09-01T11:15:32.565Z,2915
2018-09-01T11:16:33.149Z,2930
2018-09-01T11:17:33.706Z,2900
2018-09-01T11:18:34.276Z,2870
2018-09-01T11:19:34.848Z,2855
2018-09-01T11:20:35.438Z,2625
2018-09-01T11:21:35.991Z,640
2018-09-01T11:22:36.551Z,615
2018-09-01T11:23:37.135Z,2865
2018-09-01T11:24:37.703Z,2845
2018-09-01T11:25:38.274Z,2825
2018-09-01T11:26:38.845Z,2825
2018-09-01T11:27:39.444Z,2800
2018-09-01T11:28:39.987Z,2785
2018-09-01T11:29:40.558Z,2735
2018-09-01T11:30:41.129Z,2695
2018-09-01T11:31:41.704Z,2680
2018-09-01T11:32:42.295Z,820
2018-09-01T11:33:42.852Z,2565
2018-09-01T11:34:43.427Z,2675
2018-09-01T11:35:43.996Z,2640
2018-09-01T11:36:44.575Z,2645
2018-09-01T11:37:45.137Z,2695
2018-09-01T11:38:45.710Z,2700
2018-09-01T11:39:46.280Z,2720
2018-09-01T11:40:46.849Z,2695
2018-09-01T11:41:47.428Z,2695
2018-09-01T11:42:48.127Z,2705
2018-09-01T11:43:48.584Z,2670
2018-09-01T11:44:49.128Z,2635
2018-09-01T11:45:49.695Z,2565
2018-09-01T11:46:50.275Z,2540
2018-09-01T11:47:50.850Z,2530
2018-09-01T11:48:51.432Z,2525
2018-09-01T11:49:52.010Z,2545
2018-09-01T11:50:52.571Z,2545
2018-09-01T11:51:53.144Z,2575
2018-09-01T11:52:53.717Z,2330
2018-09-01T11:53:54.315Z,960
2018-09-01T11:54:54.859Z,955
2018-09-01T11:55:55.424Z,590
2018-09-01T11:56:55.988Z,565
2018-09-01T11:57:56.559Z,555
2018-09-01T11:58:57.148Z,550
2018-09-01T11:59:57.693Z,575
2018-09-01T12:00:58.262Z,1965
2018-09-01T12:01:58.836Z,2635
2018-09-01T12:02:59.413Z,2610
2018-09-01T12:04:00.056Z,2600
2018-09-01T12:05:00.565Z,2625
2018-09-01T12:06:01.145Z,2560
2018-09-01T12:07:01.713Z,2520
2018-09-01T12:08:02.285Z,2560
2018-09-01T12:09:02.962Z,2545
2018-09-01T12:10:03.424Z,2550
2018-09-01T12:11:03.996Z,2560
2018-09-01T12:12:04.568Z,2565
2018-09-01T12:13:05.143Z,2580
2018-09-01T12:14:05.712Z,2620
2018-09-01T12:15:06.287Z,2585
2018-09-01T12:16:06.858Z,2640
2018-09-01T12:17:07.425Z,2690
2018-09-01T12:18:08.024Z,2715
2018-09-01T12:19:08.572Z,2685
2018-09-01T12:20:09.134Z,780
2018-09-01T12:21:09.703Z,850
2018-09-01T12:22:10.268Z,900
2018-09-01T12:23:10.828Z,2765
2018-09-01T12:24:11.401Z,2725
2018-09-01T12:25:11.966Z,2730
2018-09-01T12:26:12.536Z,2725
2018-09-01T12:27:13.111Z,2705
2018-09-01T12:28:13.715Z,2715
2018-09-01T12:29:14.251Z,2750
2018-09-01T12:30:14.819Z,2735
2018-09-01T12:31:15.387Z,2770
2018-09-01T12:32:15.954Z,2775
2018-09-01T12:33:16.528Z,2790
2018-09-01T12:34:17.100Z,2785
2018-09-01T12:35:17.675Z,2805
2018-09-01T12:36:18.259Z,2755
2018-09-01T12:37:18.809Z,960
2018-09-01T12:38:19.381Z,850
2018-09-01T12:39:19.958Z,865
2018-09-01T12:40:20.528Z,1115
2018-09-01T12:41:21.105Z,900
2018-09-01T12:42:21.672Z,1465
2018-09-01T12:43:22.242Z,2325
2018-09-01T12:44:22.820Z,2240
2018-09-01T12:45:23.392Z,2380
2018-09-01T12:46:23.963Z,1250
2018-09-01T12:47:24.534Z,1270
2018-09-01T12:48:25.105Z,775
2018-09-01T12:49:25.671Z,880
2018-09-01T12:50:26.241Z,830
2018-09-01T12:51:26.812Z,790
2018-09-01T12:52:27.380Z,775
2018-09-01T12:53:27.952Z,755
2018-09-01T12:54:28.522Z,745
2018-09-01T12:55:29.091Z,760
2018-09-01T12:56:29.662Z,755
2018-09-01T12:57:30.234Z,770
2018-09-01T12:58:30.805Z,785
2018-09-01T12:59:31.376Z,800
2018-09-01T13:00:31.951Z,825
2018-09-01T13:01:32.511Z,860
2018-09-01T13:02:33.082Z,900
2018-09-01T13:03:33.656Z,1000
2018-09-01T13:04:34.222Z,1270
2018-09-01T13:05:34.794Z,1455
2018-09-01T13:06:35.364Z,710
2018-09-01T13:07:35.935Z,660
2018-09-01T13:08:36.531Z,630
2018-09-01T13:09:37.079Z,640
2018-09-01T13:10:37.646Z,1610
2018-09-01T13:11:38.220Z,2355
2018-09-01T13:12:38.791Z,2350
2018-09-01T13:13:39.364Z,2260
2018-09-01T13:14:39.931Z,2200
2018-09-01T13:15:40.503Z,2445
2018-09-01T13:16:41.067Z,2510
2018-09-01T13:17:41.630Z,2475
2018-09-01T13:18:42.197Z,2270
2018-09-01T13:19:42.796Z,2355
2018-09-01T13:20:43.342Z,2385
2018-09-01T13:21:43.907Z,2335
2018-09-01T13:22:44.477Z,2350
2018-09-01T13:23:45.050Z,2335
2018-09-01T13:24:45.614Z,2335
2018-09-01T13:25:46.191Z,2355
2018-09-01T13:26:46.765Z,2350
2018-09-01T13:27:47.337Z,2355
2018-09-01T13:28:47.912Z,2340
2018-09-01T13:29:48.484Z,2355
2018-09-01T13:30:49.056Z,2425
2018-09-01T13:31:49.619Z,2365
2018-09-01T13:32:50.240Z,2320
2018-09-01T13:33:50.772Z,2310
2018-09-01T13:34:51.341Z,2275
2018-09-01T13:35:51.920Z,2260
2018-09-01T13:36:52.482Z,2265
2018-09-01T13:37:53.058Z,2270
2018-09-01T13:38:53.674Z,2280
2018-09-01T13:39:54.194Z,2320
2018-09-01T13:40:54.768Z,2325
2018-09-01T13:41:55.336Z,2310
2018-09-01T13:42:55.906Z,2310
2018-09-01T13:43:56.470Z,2305
2018-09-01T13:44:57.042Z,2310
2018-09-01T13:45:57.678Z,2305
2018-09-01T13:46:58.189Z,2285
2018-09-01T13:47:58.751Z,2265
2018-09-01T13:48:59.315Z,2225
2018-09-01T13:49:59.890Z,2215
2018-09-01T13:51:00.462Z,2205
2018-09-01T13:52:01.034Z,2175
2018-09-01T13:53:01.607Z,2130
2018-09-01T13:54:02.175Z,2130
2018-09-01T13:55:02.740Z,2130
2018-09-01T13:56:03.315Z,2105
2018-09-01T13:57:03.887Z,2105
2018-09-01T13:58:04.463Z,2095
2018-09-01T13:59:05.032Z,2070
2018-09-01T14:00:05.604Z,2090
2018-09-01T14:01:06.176Z,2080
2018-09-01T14:02:06.747Z,2060
2018-09-01T14:03:07.322Z,2045
2018-09-01T14:04:07.891Z,2095